Time;durP1;ratioP1;P1;durP2;ratioP2;P2;SDS_P1;SDS_P2;PMS_P1;PMS_P2;Temp;Humidity;BMP_temperature;BMP_pressure;BME280_temperature;BME280_humidity;BME280_pressure;Samples;Min_cycle;Max_cycle;Signal;HPM_P1;HPM_P2
2023/04/05 00:01:37;;;;;;;16.83;15.60;;;-0.30;99.90;;;;;;5020388;28;20480;-68
2023/04/05 00:04:06;;;;;;;16.57;15.43;;;-0.30;99.90;;;;;;5023717;28;20459;-70
2023/04/05 00:06:36;;;;;;;15.80;14.70;;;-0.30;99.90;;;;;;5028633;28;20457;-69
2023/04/05 00:09:04;;;;;;;15.23;14.10;;;-0.30;99.90;;;;;;5024388;28;20541;-69
2023/04/05 00:11:32;;;;;;;15.50;14.23;;;-0.40;99.90;;;;;;5022367;28;20475;-69
2023/04/05 00:14:01;;;;;;;17.10;15.60;;;-0.40;99.90;;;;;;5021907;28;20475;-68
2023/04/05 00:16:28;;;;;;;15.00;13.70;;;-0.40;99.90;;;;;;5021328;28;20464;-68
2023/04/05 00:18:59;;;;;;;16.73;15.23;;;-0.40;99.90;;;;;;5017164;28;20472;-68
2023/04/05 00:21:26;;;;;;;15.33;14.13;;;-0.40;99.90;;;;;;5018977;28;20589;-69
2023/04/05 00:23:57;;;;;;;15.17;13.97;;;-0.50;99.90;;;;;;5022213;28;20480;-68
2023/04/05 00:26:25;;;;;;;16.00;14.33;;;-0.60;99.90;;;;;;5021160;28;20832;-68
2023/04/05 00:28:52;;;;;;;15.17;13.83;;;-0.60;99.90;;;;;;5020949;28;20646;-68
2023/04/05 00:31:19;;;;;;;15.63;13.50;;;-0.60;99.90;;;;;;5019484;28;20983;-68
2023/04/05 00:33:46;;;;;;;15.03;13.80;;;-0.70;99.90;;;;;;5016405;28;20620;-68
2023/04/05 00:36:15;;;;;;;15.53;14.27;;;-0.80;99.90;;;;;;5018935;28;20558;-68
2023/04/05 00:38:43;;;;;;;14.97;13.70;;;-0.70;99.90;;;;;;5018654;28;20469;-69
2023/04/05 00:41:13;;;;;;;15.00;13.70;;;-0.70;99.90;;;;;;5022468;28;21347;-68
2023/04/05 00:43:40;;;;;;;15.93;14.17;;;-0.70;99.90;;;;;;5026144;28;20464;-69
2023/04/05 00:46:08;;;;;;;14.60;13.53;;;-0.80;99.90;;;;;;5023015;28;20494;-69
2023/04/05 00:48:35;;;;;;;15.27;13.70;;;-0.90;99.90;;;;;;5018672;28;20481;-69
2023/04/05 00:51:03;;;;;;;15.33;14.00;;;-0.80;99.90;;;;;;5020434;28;20464;-69
2023/04/05 00:53:31;;;;;;;14.80;13.30;;;-0.80;99.90;;;;;;5013340;28;20552;-68
2023/04/05 00:55:58;;;;;;;14.97;13.50;;;-0.80;99.90;;;;;;5024414;28;20845;-69
2023/04/05 00:58:27;;;;;;;13.90;12.90;;;-0.80;99.90;;;;;;5024973;28;20469;-69
2023/04/05 01:01:02;;;;;;;14.03;12.80;;;-0.80;99.90;;;;;;5024310;28;20486;-69
2023/04/05 01:03:33;;;;;;;13.87;12.80;;;-0.80;99.90;;;;;;5021585;28;20489;-68
2023/04/05 01:06:13;;;;;;;14.40;13.03;;;-0.90;99.90;;;;;;5021093;28;20901;-68
2023/04/05 01:08:48;;;;;;;13.57;12.57;;;-0.90;99.90;;;;;;5022168;28;20807;-68
2023/04/05 01:11:18;;;;;;;14.17;13.07;;;-0.90;99.90;;;;;;5022487;28;20479;-68
2023/04/05 01:13:46;;;;;;;14.47;12.97;;;-0.90;99.90;;;;;;5020583;28;20475;-68
2023/04/05 01:16:14;;;;;;;13.57;12.47;;;-0.80;99.90;;;;;;5023927;28;20472;-68
2023/04/05 01:18:45;;;;;;;14.00;12.70;;;-0.80;99.90;;;;;;5023478;28;20473;-68
2023/04/05 01:21:42;;;;;;;14.37;13.20;;;-0.80;99.90;;;;;;5020450;28;21074;-68
2023/04/05 01:24:19;;;;;;;13.87;12.67;;;-0.90;99.90;;;;;;5019294;28;20974;-68
2023/04/05 01:26:58;;;;;;;13.77;12.60;;;-0.90;99.90;;;;;;5021443;28;20487;-68
2023/04/05 01:29:50;;;;;;;13.17;12.20;;;-0.90;99.90;;;;;;5017364;28;20492;-68
2023/04/05 01:32:42;;;;;;;12.50;11.50;;;-0.90;99.90;;;;;;5016045;28;21054;-68
2023/04/05 01:35:16;;;;;;;11.67;10.80;;;-0.90;99.90;;;;;;5018581;28;20473;-68
2023/04/05 01:37:49;;;;;;;13.77;12.40;;;-1.00;99.90;;;;;;5019926;28;21033;-68
2023/04/05 01:40:16;;;;;;;14.23;12.60;;;-0.90;99.90;;;;;;5020391;28;20526;-69
2023/04/05 01:42:44;;;;;;;13.70;12.50;;;-0.80;99.90;;;;;;5023656;28;20495;-67
2023/04/05 01:45:12;;;;;;;12.80;11.70;;;-0.80;99.90;;;;;;5020280;28;20914;-68
2023/04/05 01:47:39;;;;;;;12.77;11.77;;;-0.80;99.90;;;;;;5017373;28;20476;-68
2023/04/05 01:50:07;;;;;;;12.93;11.80;;;-0.70;99.90;;;;;;5025219;28;21112;-68
2023/04/05 01:52:34;;;;;;;12.53;11.53;;;-0.60;99.90;;;;;;5023405;28;20806;-68
2023/04/05 01:55:02;;;;;;;13.87;12.77;;;-0.60;99.90;;;;;;5021698;28;20471;-68
2023/04/05 01:57:29;;;;;;;14.43;12.23;;;-0.70;99.90;;;;;;5017669;28;20468;-68
2023/04/05 01:59:56;;;;;;;14.20;12.80;;;-0.70;99.90;;;;;;5023270;28;20467;-68
2023/04/05 02:02:25;;;;;;;13.67;12.43;;;-0.70;99.90;;;;;;5021385;28;20476;-68
2023/04/05 02:04:51;;;;;;;14.23;12.73;;;-0.80;99.90;;;;;;5017853;28;21300;-69
2023/04/05 02:07:18;;;;;;;14.20;12.87;;;-0.80;99.90;;;;;;5023952;28;20956;-69
2023/04/05 02:09:46;;;;;;;13.33;12.13;;;-0.80;99.90;;;;;;5021970;28;20499;-68
2023/04/05 02:12:13;;;;;;;12.63;11.33;;;-0.70;99.90;;;;;;5019657;28;20467;-68
2023/04/05 02:14:40;;;;;;;14.13;12.80;;;-0.70;99.90;;;;;;5014126;28;20559;-69
2023/04/05 02:17:06;;;;;;;14.67;12.73;;;-0.70;99.90;;;;;;5025043;28;20457;-69
2023/04/05 02:19:39;;;;;;;14.10;12.57;;;-0.70;99.90;;;;;;5022663;28;20964;-69
2023/04/05 02:22:07;;;;;;;16.67;12.23;;;-0.70;99.90;;;;;;5016281;28;20468;-68
2023/04/05 02:24:34;;;;;;;19.60;11.50;;;-0.70;99.90;;;;;;5021612;28;20821;-69
2023/04/05 02:27:01;;;;;;;14.40;13.20;;;-0.70;99.90;;;;;;5017447;28;20548;-69
2023/04/05 02:29:28;;;;;;;17.00;11.70;;;-0.80;99.90;;;;;;5021414;28;20496;-68
2023/04/05 02:31:55;;;;;;;13.80;12.27;;;-0.90;99.90;;;;;;5022161;28;20965;-68
2023/04/05 02:34:23;;;;;;;13.40;12.10;;;-1.00;99.90;;;;;;5015886;28;20475;-68
2023/04/05 02:36:52;;;;;;;13.00;11.70;;;-1.10;99.90;;;;;;5026014;28;20607;-69
2023/04/05 02:39:19;;;;;;;13.83;12.40;;;-1.10;99.90;;;;;;5020961;28;20464;-69
2023/04/05 02:41:46;;;;;;;13.77;12.37;;;-1.20;99.90;;;;;;5022206;28;20491;-69
2023/04/05 02:44:13;;;;;;;16.07;12.37;;;-1.20;99.90;;;;;;5020557;28;20518;-69
2023/04/05 02:46:40;;;;;;;14.27;12.80;;;-1.20;99.90;;;;;;5022903;28;22756;-68
2023/04/05 02:49:07;;;;;;;13.40;12.20;;;-1.20;99.90;;;;;;5021749;28;20583;-69
2023/04/05 02:51:35;;;;;;;13.80;12.47;;;-1.30;99.90;;;;;;5019577;28;20467;-69
2023/04/05 02:54:04;;;;;;;14.17;12.70;;;-1.30;99.90;;;;;;5018721;28;20456;-69
2023/04/05 02:56:31;;;;;;;12.87;11.70;;;-1.40;99.90;;;;;;5018250;28;20986;-69
2023/04/05 02:58:58;;;;;;;13.40;12.20;;;-1.40;99.90;;;;;;5016185;28;20926;-69
2023/04/05 03:01:25;;;;;;;15.33;13.83;;;-1.40;99.90;;;;;;5024022;28;20464;-69
2023/04/05 03:03:52;;;;;;;13.43;12.13;;;-1.40;99.90;;;;;;5020841;28;20468;-69
2023/04/05 03:06:19;;;;;;;17.80;13.07;;;-1.40;99.90;;;;;;5021024;28;20468;-69
2023/04/05 03:08:47;;;;;;;16.17;12.97;;;-1.40;99.90;;;;;;5014429;28;20470;-69
2023/04/05 03:11:16;;;;;;;13.50;12.23;;;-1.40;99.90;;;;;;5026513;28;20554;-69
2023/04/05 03:13:44;;;;;;;16.80;13.00;;;-1.30;99.90;;;;;;5023637;28;20452;-69
2023/04/05 03:16:11;;;;;;;15.23;13.63;;;-1.20;99.90;;;;;;5019928;28;20814;-69
2023/04/05 03:18:38;;;;;;;17.27;14.10;;;-1.20;99.90;;;;;;5018924;28;20952;-69
2023/04/05 03:21:10;;;;;;;13.60;12.30;;;-1.10;99.90;;;;;;5020950;28;20465;-69
2023/04/05 03:23:37;;;;;;;13.90;12.77;;;-1.10;99.90;;;;;;5017641;28;20468;-69
2023/04/05 03:26:05;;;;;;;13.07;11.87;;;-1.10;99.90;;;;;;5023583;28;20483;-69
2023/04/05 03:28:34;;;;;;;13.97;12.50;;;-1.20;99.90;;;;;;5022555;28;20897;-69
2023/04/05 03:31:01;;;;;;;16.30;13.00;;;-1.20;99.90;;;;;;5018885;28;20862;-69
2023/04/05 03:33:28;;;;;;;13.37;12.00;;;-1.30;99.90;;;;;;5016073;28;20465;-69
2023/04/05 03:35:55;;;;;;;13.50;11.70;;;-1.40;99.90;;;;;;5016446;28;20481;-69
2023/04/05 03:38:23;;;;;;;14.53;12.10;;;-1.40;99.90;;;;;;5022954;28;20466;-69
2023/04/05 03:40:50;;;;;;;13.87;12.47;;;-1.50;99.90;;;;;;5022472;28;20777;-69
2023/04/05 03:43:17;;;;;;;15.70;14.07;;;-1.60;99.90;;;;;;5020422;28;20475;-69
2023/04/05 03:45:45;;;;;;;15.70;13.80;;;-1.60;99.90;;;;;;5018860;28;20517;-69
2023/04/05 03:48:12;;;;;;;14.80;13.30;;;-1.60;99.90;;;;;;5020849;28;20578;-69
2023/04/05 03:50:39;;;;;;;16.30;14.43;;;-1.60;99.90;;;;;;5021506;28;20488;-69
2023/04/05 03:53:05;;;;;;;14.67;13.27;;;-1.60;99.90;;;;;;5013473;28;20471;-69
2023/04/05 03:55:32;;;;;;;14.77;13.47;;;-1.60;99.90;;;;;;5015935;28;20463;-71
2023/04/05 03:58:00;;;;;;;18.70;14.63;;;-1.70;99.90;;;;;;5023956;28;20468;-69
2023/04/05 04:00:28;;;;;;;15.33;13.83;;;-1.70;99.90;;;;;;5019299;28;20564;-69
2023/04/05 04:02:57;;;;;;;18.73;13.93;;;-1.70;99.90;;;;;;5019691;28;20468;-68
2023/04/05 04:05:24;;;;;;;15.90;14.03;;;-1.80;99.90;;;;;;5021959;28;20467;-69
2023/04/05 04:07:51;;;;;;;16.90;14.27;;;-1.80;99.90;;;;;;5021276;28;20461;-69
2023/04/05 04:10:19;;;;;;;16.17;14.67;;;-1.80;99.90;;;;;;5018451;28;20864;-69
2023/04/05 04:12:46;;;;;;;14.87;13.37;;;-1.80;99.90;;;;;;5017374;28;20972;-69
2023/04/05 04:15:13;;;;;;;15.60;13.90;;;-1.90;99.90;;;;;;5024115;28;20472;-69
2023/04/05 04:17:42;;;;;;;14.83;13.13;;;-1.90;99.90;;;;;;5023427;28;20970;-69
2023/04/05 04:20:11;;;;;;;14.30;13.00;;;-2.00;99.90;;;;;;5024233;28;20526;-69
2023/04/05 04:22:39;;;;;;;15.20;13.90;;;-2.00;99.90;;;;;;5024042;28;20843;-69
2023/04/05 04:25:09;;;;;;;16.10;14.50;;;-1.90;99.90;;;;;;5024715;28;20531;-70
2023/04/05 04:27:38;;;;;;;14.97;13.50;;;-1.90;99.90;;;;;;5018649;28;20488;-69
2023/04/05 04:30:09;;;;;;;16.83;15.03;;;-1.90;99.90;;;;;;5019355;28;20586;-69
2023/04/05 04:32:50;;;;;;;17.70;14.07;;;-1.90;99.90;;;;;;5025631;28;20458;-69
2023/04/05 04:35:19;;;;;;;15.03;13.50;;;-2.00;99.90;;;;;;5017370;28;20483;-69
2023/04/05 04:37:51;;;;;;;15.67;14.27;;;-2.10;99.90;;;;;;5025061;28;20553;-69
2023/04/05 04:40:18;;;;;;;14.33;13.10;;;-2.10;99.90;;;;;;5016611;28;20892;-69
2023/04/05 04:42:46;;;;;;;17.07;15.30;;;-2.20;99.90;;;;;;5024429;28;20491;-69
2023/04/05 04:45:16;;;;;;;15.63;14.00;;;-2.20;99.90;;;;;;5024102;28;20530;-69
2023/04/05 04:47:43;;;;;;;20.30;15.97;;;-2.20;99.90;;;;;;5025757;28;20468;-69
2023/04/05 04:50:11;;;;;;;17.20;14.73;;;-2.20;99.90;;;;;;5024711;28;21033;-69
2023/04/05 04:52:40;;;;;;;16.73;15.00;;;-2.20;99.90;;;;;;5019105;28;21049;-69
2023/04/05 04:55:08;;;;;;;16.27;13.63;;;-2.20;99.90;;;;;;5020600;28;20539;-70
2023/04/05 04:57:34;;;;;;;15.90;14.30;;;-2.20;99.90;;;;;;5025457;28;20475;-69
2023/04/05 05:00:03;;;;;;;16.07;14.47;;;-2.30;99.90;;;;;;5019813;28;20476;-69
2023/04/05 05:02:30;;;;;;;20.63;14.13;;;-2.30;99.90;;;;;;5024103;28;20471;-69
2023/04/05 05:04:56;;;;;;;18.60;15.20;;;-2.40;99.90;;;;;;5023198;28;20522;-69
2023/04/05 05:07:23;;;;;;;17.90;14.70;;;-2.50;99.90;;;;;;5022012;28;20469;-69
2023/04/05 05:09:52;;;;;;;15.83;14.23;;;-2.50;99.90;;;;;;5022438;28;20484;-69
2023/04/05 05:12:21;;;;;;;15.53;13.93;;;-2.50;99.90;;;;;;5019853;28;20557;-69
2023/04/05 05:14:48;;;;;;;18.10;14.10;;;-2.60;99.90;;;;;;5023662;28;20472;-69
2023/04/05 05:17:15;;;;;;;20.37;14.53;;;-2.50;99.90;;;;;;5022403;28;20457;-69
2023/04/05 05:19:42;;;;;;;16.33;14.70;;;-2.50;99.90;;;;;;5025002;28;20576;-69
2023/04/05 05:22:10;;;;;;;16.23;13.97;;;-2.40;99.90;;;;;;5020051;28;20467;-69
2023/04/05 05:24:37;;;;;;;16.83;15.13;;;-2.40;99.90;;;;;;5019528;28;20508;-69
2023/04/05 05:27:07;;;;;;;18.40;15.93;;;-2.30;99.90;;;;;;5023808;28;20467;-69
2023/04/05 05:29:34;;;;;;;15.97;13.83;;;-2.20;99.90;;;;;;5018146;28;20470;-69
2023/04/05 05:32:01;;;;;;;15.90;14.20;;;-2.20;99.90;;;;;;5020472;28;20521;-69
2023/04/05 05:34:28;;;;;;;20.67;14.63;;;-2.20;99.90;;;;;;5022428;28;20483;-69
2023/04/05 05:36:55;;;;;;;16.90;14.87;;;-2.20;99.90;;;;;;5024811;28;20523;-69
2023/04/05 05:39:23;;;;;;;16.43;14.73;;;-2.20;99.90;;;;;;5019773;28;20463;-69
2023/04/05 05:41:49;;;;;;;16.80;14.77;;;-2.20;99.90;;;;;;5023931;28;20595;-69
2023/04/05 05:44:18;;;;;;;17.93;15.37;;;-2.20;99.90;;;;;;5024548;28;20855;-69
2023/04/05 05:46:45;;;;;;;20.90;15.00;;;-2.10;99.90;;;;;;5024353;28;20529;-69
2023/04/05 05:49:13;;;;;;;21.33;16.00;;;-2.10;99.90;;;;;;5017990;28;20975;-69
2023/04/05 05:51:40;;;;;;;17.73;14.07;;;-2.00;99.90;;;;;;5026929;28;20507;-69
2023/04/05 05:54:06;;;;;;;15.93;13.67;;;-2.00;99.90;;;;;;5025124;28;20492;-69
2023/04/05 05:56:33;;;;;;;17.20;14.80;;;-1.90;99.90;;;;;;5022255;28;20824;-69
2023/04/05 05:59:00;;;;;;;18.70;15.80;;;-1.80;99.90;;;;;;5022779;28;20468;-69
2023/04/05 06:01:29;;;;;;;18.57;15.50;;;-1.80;99.90;;;;;;5024880;28;20776;-69
2023/04/05 06:03:56;;;;;;;17.00;15.33;;;-1.70;99.90;;;;;;5023852;28;20460;-69
2023/04/05 06:06:23;;;;;;;18.63;15.60;;;-1.60;99.90;;;;;;5023011;28;21112;-70
2023/04/05 06:08:50;;;;;;;18.67;15.00;;;-1.50;99.90;;;;;;5026848;28;20472;-69
2023/04/05 06:11:18;;;;;;;17.03;15.23;;;-1.50;99.90;;;;;;5022009;28;21032;-69
2023/04/05 06:13:45;;;;;;;19.80;16.53;;;-1.30;99.90;;;;;;5019091;28;20462;-69
2023/04/05 06:16:14;;;;;;;16.70;15.10;;;-1.20;99.90;;;;;;5018265;28;20905;-70
2023/04/05 06:18:42;;;;;;;16.80;15.20;;;-1.10;99.90;;;;;;5026118;28;20460;-70
2023/04/05 06:21:09;;;;;;;19.77;17.90;;;-1.00;99.90;;;;;;5025540;28;20557;-69
2023/04/05 06:23:36;;;;;;;18.63;16.37;;;-0.90;99.90;;;;;;5019069;28;20469;-69
2023/04/05 06:26:03;;;;;;;18.67;16.83;;;-0.90;99.90;;;;;;5022650;28;20460;-69
2023/04/05 06:28:30;;;;;;;18.30;15.70;;;-0.80;99.90;;;;;;5023851;28;20471;-69
2023/04/05 06:30:59;;;;;;;18.60;16.97;;;-0.70;99.90;;;;;;5022891;28;20488;-69
2023/04/05 06:33:26;;;;;;;20.00;16.80;;;-0.60;99.90;;;;;;5026612;28;20836;-70
2023/04/05 06:35:54;;;;;;;22.63;17.10;;;-0.50;99.90;;;;;;5025008;28;20507;-69
2023/04/05 06:38:21;;;;;;;18.47;16.53;;;-0.40;99.90;;;;;;5013086;28;20527;-69
2023/04/05 06:40:48;;;;;;;23.37;16.97;;;-0.30;99.90;;;;;;5013892;28;20496;-69
2023/04/05 06:43:15;;;;;;;18.80;16.83;;;-0.10;99.90;;;;;;5016514;28;20475;-70
2023/04/05 06:45:43;;;;;;;29.27;19.17;;;0.00;99.90;;;;;;5017570;28;20982;-69
2023/04/05 06:48:10;;;;;;;19.93;17.60;;;0.10;99.90;;;;;;5016991;28;21022;-70
2023/04/05 06:50:38;;;;;;;28.90;17.67;;;0.30;99.90;;;;;;5020202;28;20568;-70
2023/04/05 06:53:06;;;;;;;30.93;20.97;;;0.50;99.90;;;;;;5019321;28;20572;-70
2023/04/05 06:55:33;;;;;;;25.50;18.90;;;0.60;99.90;;;;;;5021024;28;20499;-69
2023/04/05 06:58:00;;;;;;;35.17;19.03;;;0.80;99.90;;;;;;5021586;28;20487;-70
2023/04/05 07:00:27;;;;;;;42.80;19.87;;;1.00;99.90;;;;;;5020491;28;20499;-69
2023/04/05 07:02:54;;;;;;;37.37;21.20;;;1.10;99.90;;;;;;5016522;28;20878;-70
2023/04/05 07:05:21;;;;;;;30.03;20.77;;;1.30;99.90;;;;;;5018360;28;20830;-69
2023/04/05 07:07:48;;;;;;;37.23;22.50;;;1.40;99.90;;;;;;5018191;28;21067;-69
2023/04/05 07:10:16;;;;;;;34.93;22.80;;;1.50;99.90;;;;;;5021417;28;20833;-69
2023/04/05 07:12:43;;;;;;;39.47;25.13;;;1.70;99.90;;;;;;5022129;28;20468;-69
2023/04/05 07:15:11;;;;;;;30.23;23.87;;;1.80;99.90;;;;;;5019100;28;20740;-69
2023/04/05 07:17:38;;;;;;;37.47;26.13;;;1.90;99.90;;;;;;5020393;28;20461;-69
2023/04/05 07:20:08;;;;;;;36.73;26.10;;;2.00;99.90;;;;;;5020298;28;20468;-69
2023/04/05 07:22:36;;;;;;;39.10;28.43;;;2.10;99.90;;;;;;5018934;28;20465;-69
2023/04/05 07:25:04;;;;;;;44.27;28.07;;;2.20;99.90;;;;;;5019220;28;20461;-69
2023/04/05 07:27:33;;;;;;;33.10;27.50;;;2.30;99.90;;;;;;5022642;28;21386;-68
2023/04/05 07:30:01;;;;;;;31.60;27.30;;;2.40;99.90;;;;;;5019764;28;20559;-68
2023/04/05 07:32:27;;;;;;;29.83;26.50;;;2.50;99.90;;;;;;5021240;28;20484;-68
2023/04/05 07:34:55;;;;;;;33.97;29.30;;;2.50;99.90;;;;;;5020292;28;20485;-68
2023/04/05 07:37:22;;;;;;;32.47;28.57;;;2.60;99.90;;;;;;5019384;28;20491;-70
2023/04/05 07:39:48;;;;;;;36.43;27.73;;;2.70;99.90;;;;;;5020773;28;20461;-68
2023/04/05 07:42:16;;;;;;;32.20;28.90;;;2.90;99.90;;;;;;5021909;28;20491;-68
2023/04/05 07:44:45;;;;;;;35.37;27.70;;;2.90;99.90;;;;;;5015853;28;21079;-68
2023/04/05 07:47:11;;;;;;;34.40;28.40;;;3.00;99.90;;;;;;5018930;28;20465;-68
2023/04/05 07:49:38;;;;;;;44.03;30.57;;;3.20;99.90;;;;;;5022240;28;20476;-72
2023/04/05 07:52:07;;;;;;;34.93;31.10;;;3.30;99.90;;;;;;5025104;28;20491;-69
2023/04/05 07:54:35;;;;;;;33.07;29.67;;;3.40;99.90;;;;;;5021910;28;20469;-69
2023/04/05 07:57:01;;;;;;;36.47;30.77;;;3.40;99.90;;;;;;5015620;28;20564;-69
2023/04/05 07:59:28;;;;;;;41.00;30.50;;;3.40;99.90;;;;;;5020455;28;20496;-71
2023/04/05 08:01:56;;;;;;;34.40;30.97;;;3.50;99.90;;;;;;5024841;28;20816;-69
2023/04/05 08:04:25;;;;;;;36.33;31.20;;;3.60;99.90;;;;;;5019006;28;20458;-69
2023/04/05 08:06:51;;;;;;;37.73;31.93;;;3.60;99.90;;;;;;5024778;28;20543;-71
2023/04/05 08:09:18;;;;;;;39.67;33.87;;;3.70;99.90;;;;;;5026994;28;20806;-68
2023/04/05 08:11:46;;;;;;;33.83;30.47;;;3.90;99.90;;;;;;5013903;28;20857;-70
2023/04/05 08:14:13;;;;;;;36.93;32.93;;;4.00;99.90;;;;;;5021283;28;20460;-69
2023/04/05 08:16:40;;;;;;;38.00;30.57;;;4.00;99.90;;;;;;5024833;28;20464;-69
2023/04/05 08:19:08;;;;;;;38.13;32.47;;;4.20;99.90;;;;;;5022565;28;20460;-72
2023/04/05 08:21:35;;;;;;;39.83;31.70;;;4.20;99.90;;;;;;5026053;28;20873;-68
2023/04/05 08:24:02;;;;;;;33.60;30.70;;;4.30;99.90;;;;;;5021478;28;20464;-68
2023/04/05 08:26:29;;;;;;;34.10;30.80;;;4.50;99.90;;;;;;5021990;28;20842;-69
2023/04/05 08:28:56;;;;;;;33.20;29.80;;;4.60;99.90;;;;;;5022321;28;20465;-71
2023/04/05 08:31:23;;;;;;;34.73;31.07;;;4.70;99.90;;;;;;5019244;28;21029;-69
2023/04/05 08:33:50;;;;;;;33.60;29.97;;;4.90;99.90;;;;;;5020366;28;20908;-69
2023/04/05 08:36:18;;;;;;;34.37;30.97;;;5.00;99.90;;;;;;5020754;28;20557;-69
2023/04/05 08:38:45;;;;;;;32.47;29.27;;;5.10;99.90;;;;;;5015012;28;20473;-69
2023/04/05 08:41:18;;;;;;;36.60;33.13;;;5.30;99.90;;;;;;5022945;28;20991;-69
2023/04/05 08:43:56;;;;;;;40.30;33.50;;;5.50;99.90;;;;;;5021182;28;20972;-69
2023/04/05 08:46:24;;;;;;;33.37;30.07;;;5.50;99.90;;;;;;5021531;28;20986;-70
2023/04/05 08:48:51;;;;;;;35.33;31.00;;;5.50;99.90;;;;;;5022720;28;20482;-69
2023/04/05 08:51:23;;;;;;;32.80;29.60;;;5.70;99.90;;;;;;5019544;28;20498;-69
2023/04/05 08:53:50;;;;;;;33.77;30.27;;;5.70;99.90;;;;;;5021949;28;20950;-69
2023/04/05 08:56:21;;;;;;;39.63;29.00;;;5.80;99.90;;;;;;5018939;28;20461;-69
2023/04/05 08:58:57;;;;;;;40.63;28.93;;;5.90;99.90;;;;;;5015248;28;20912;-69
2023/04/05 09:01:25;;;;;;;38.37;28.57;;;5.90;99.90;;;;;;5020645;28;20461;-69
2023/04/05 09:03:54;;;;;;;30.40;27.30;;;6.00;99.90;;;;;;5021707;28;20464;-69
2023/04/05 09:06:22;;;;;;;38.13;27.60;;;6.10;99.90;;;;;;5021044;28;20465;-69
2023/04/05 09:08:50;;;;;;;29.90;26.90;;;6.30;99.90;;;;;;5014359;28;20468;-71
2023/04/05 09:11:17;;;;;;;36.10;27.50;;;6.60;99.90;;;;;;5020501;28;20477;-69
2023/04/05 09:13:43;;;;;;;35.77;27.20;;;6.70;99.90;;;;;;5021907;28;20472;-69
2023/04/05 09:16:11;;;;;;;30.57;27.57;;;6.80;99.90;;;;;;5022867;28;20475;-72
2023/04/05 09:18:38;;;;;;;41.43;27.87;;;7.10;99.90;;;;;;5025103;28;20576;-71
2023/04/05 09:21:05;;;;;;;27.90;25.43;;;7.90;99.90;;;;;;5023187;28;20465;-70
2023/04/05 09:23:34;;;;;;;31.70;28.37;;;8.70;99.90;;;;;;5019565;28;20605;-72
2023/04/05 09:26:03;;;;;;;35.40;25.60;;;9.50;99.90;;;;;;5020215;28;20555;-69
2023/04/05 09:28:42;;;;;;;29.97;25.00;;;10.20;99.90;;;;;;5023652;28;20484;-69
2023/04/05 09:31:09;;;;;;;27.40;24.90;;;10.80;99.90;;;;;;5020350;28;20480;-72
2023/04/05 09:33:36;;;;;;;31.37;25.33;;;11.40;99.90;;;;;;5023500;28;20558;-69
2023/04/05 09:36:04;;;;;;;29.07;26.00;;;12.00;99.90;;;;;;5015578;28;20584;-71
2023/04/05 09:38:46;;;;;;;29.47;25.80;;;12.80;99.90;;;;;;5015591;28;20492;-69
2023/04/05 09:41:13;;;;;;;26.90;24.67;;;13.50;99.80;;;;;;5011617;28;20492;-70
2023/04/05 09:43:40;;;;;;;37.13;27.53;;;13.90;97.70;;;;;;5019232;28;20527;-70
2023/04/05 09:46:15;;;;;;;29.33;26.50;;;13.80;93.60;;;;;;5024280;28;20492;-70
2023/04/05 09:48:47;;;;;;;30.53;25.93;;;13.70;93.70;;;;;;5020415;28;20457;-69
2023/04/05 09:51:15;;;;;;;28.80;25.77;;;14.90;92.40;;;;;;5016928;28;20473;-71
2023/04/05 09:56:40;;;;;;;28.97;25.50;;;15.30;86.10;;;;;;5062136;27;20557;-72
2023/04/05 09:59:09;;;;;;;29.87;26.47;;;15.50;79.10;;;;;;5063919;28;21543;-69
2023/04/05 10:01:36;;;;;;;26.93;24.07;;;15.60;79.50;;;;;;5060672;28;20992;-70
2023/04/05 10:04:04;;;;;;;41.63;24.10;;;15.40;74.70;;;;;;5060520;28;20459;-70
2023/04/05 10:06:39;;;;;;;26.70;24.00;;;15.80;79.40;;;;;;5058235;28;20982;-69
2023/04/05 10:09:08;;;;;;;31.37;24.90;;;15.70;72.50;;;;;;5060107;28;20462;-69
2023/04/05 10:11:36;;;;;;;27.57;24.87;;;15.50;68.70;;;;;;5059863;28;20917;-69
2023/04/05 10:14:06;;;;;;;26.97;24.10;;;16.30;69.70;;;;;;5066986;28;20873;-69
2023/04/05 10:16:37;;;;;;;28.63;25.50;;;16.20;64.50;;;;;;5055652;28;20495;-69
2023/04/05 10:19:08;;;;;;;26.10;23.47;;;16.80;69.00;;;;;;5062412;28;20469;-69
2023/04/05 10:21:40;;;;;;;28.40;25.40;;;17.40;62.60;;;;;;5055310;28;20952;-69
2023/04/05 10:24:33;;;;;;;27.40;24.90;;;16.80;59.40;;;;;;5058165;28;20502;-68
2023/04/05 10:27:05;;;;;;;27.00;24.80;;;16.30;59.50;;;;;;5057462;28;20459;-69
2023/04/05 10:29:43;;;;;;;27.40;24.70;;;16.40;58.90;;;;;;5063811;28;20454;-71
2023/04/05 10:32:14;;;;;;;27.20;24.40;;;16.00;57.70;;;;;;5053789;28;20463;-69
2023/04/05 10:34:45;;;;;;;29.07;23.30;;;15.50;58.90;;;;;;5057690;28;20494;-70
2023/04/05 10:37:21;;;;;;;23.60;21.73;;;15.10;58.50;;;;;;5055824;28;20486;-68
2023/04/05 10:39:48;;;;;;;24.97;22.63;;;15.30;58.70;;;;;;5052541;28;20467;-69
2023/04/05 10:42:20;;;;;;;26.13;23.87;;;16.00;56.40;;;;;;5055493;28;20464;-69
2023/04/05 10:44:52;;;;;;;27.30;24.67;;;16.20;55.80;;;;;;5058640;28;20471;-68
2023/04/05 10:47:22;;;;;;;26.90;23.40;;;16.70;55.00;;;;;;5052932;28;20982;-70
2023/04/05 10:49:53;;;;;;;25.63;22.90;;;17.40;56.80;;;;;;5057577;28;20459;-68
2023/04/05 10:52:22;;;;;;;28.37;23.57;;;17.90;57.30;;;;;;5058828;28;20577;-68
2023/04/05 10:54:49;;;;;;;23.53;21.57;;;18.00;52.30;;;;;;5058745;28;20548;-68
2023/04/05 10:57:20;;;;;;;25.17;23.23;;;18.20;54.30;;;;;;5054012;28;20476;-68
2023/04/05 10:59:49;;;;;;;24.00;22.20;;;18.60;50.50;;;;;;5058015;28;20943;-68
2023/04/05 11:02:17;;;;;;;23.50;21.70;;;19.40;47.70;;;;;;5055979;28;20463;-68
2023/04/05 11:04:44;;;;;;;24.47;22.40;;;19.10;44.60;;;;;;5063414;28;20466;-68
2023/04/05 11:07:13;;;;;;;25.27;23.27;;;18.60;45.00;;;;;;5051026;28;20540;-68
2023/04/05 11:13:03;;;;;;;24.53;22.40;;;18.90;45.10;;;;;;5044767;28;20451;-69
2023/04/05 11:15:33;;;;;;;24.40;22.47;;;18.60;43.40;;;;;;5043890;28;20562;-69
2023/04/05 11:18:05;;;;;;;23.33;21.77;;;18.70;43.40;;;;;;5045877;28;20467;-68
2023/04/05 11:20:46;;;;;;;25.30;23.23;;;18.30;42.00;;;;;;5039472;28;20966;-68
2023/04/05 11:23:14;;;;;;;25.30;23.20;;;17.80;44.60;;;;;;5038282;28;20498;-68
2023/04/05 11:25:47;;;;;;;26.27;24.23;;;17.00;45.40;;;;;;5045443;28;20452;-69
2023/04/05 11:28:24;;;;;;;25.10;22.93;;;16.80;45.10;;;;;;5038657;28;20855;-68
2023/04/05 11:30:55;;;;;;;25.60;23.50;;;17.30;45.30;;;;;;5037234;28;20566;-68
2023/04/05 11:33:39;;;;;;;25.70;23.50;;;17.40;44.70;;;;;;5042564;28;20553;-69
2023/04/05 11:36:06;;;;;;;26.73;24.00;;;17.40;44.70;;;;;;5042559;28;20898;-68
2023/04/05 11:38:33;;;;;;;25.27;23.07;;;16.70;44.10;;;;;;5041300;28;20533;-68
2023/04/05 11:41:11;;;;;;;25.73;23.37;;;16.40;43.30;;;;;;5042019;28;20944;-67
2023/04/05 11:43:40;;;;;;;26.30;23.50;;;15.90;43.60;;;;;;5037278;28;20461;-67
2023/04/05 11:46:09;;;;;;;25.90;23.97;;;16.10;44.20;;;;;;5042815;28;20931;-67
2023/04/05 11:48:36;;;;;;;26.17;24.20;;;16.30;43.60;;;;;;5040223;28;21241;-68
2023/04/05 11:51:09;;;;;;;27.20;24.90;;;16.40;43.90;;;;;;5047078;28;20468;-67
2023/04/05 11:53:37;;;;;;;24.00;22.40;;;16.80;44.40;;;;;;5045378;28;20557;-68
2023/04/05 11:56:09;;;;;;;27.23;24.67;;;17.30;45.30;;;;;;5040992;28;20528;-67
2023/04/05 11:58:37;;;;;;;25.10;23.20;;;17.60;44.30;;;;;;5042563;28;20548;-68
2023/04/05 12:01:07;;;;;;;25.67;23.70;;;17.80;42.30;;;;;;5050127;28;20554;-68
2023/04/05 12:03:36;;;;;;;25.70;23.60;;;18.50;42.40;;;;;;5043296;28;20468;-68
2023/04/05 12:06:05;;;;;;;27.53;25.10;;;18.70;43.40;;;;;;5045152;28;20468;-68
2023/04/05 12:08:39;;;;;;;25.63;23.50;;;18.80;41.60;;;;;;5039830;28;20468;-68
2023/04/05 12:11:08;;;;;;;24.93;22.50;;;18.70;41.40;;;;;;5042218;28;20550;-68
2023/04/05 12:13:35;;;;;;;25.47;23.03;;;19.70;41.70;;;;;;5041602;28;20894;-68
2023/04/05 12:16:04;;;;;;;25.03;22.90;;;19.50;40.10;;;;;;5037661;28;20503;-68
2023/04/05 12:18:32;;;;;;;25.30;23.00;;;19.80;41.00;;;;;;5039385;28;20510;-68
2023/04/05 12:21:02;;;;;;;26.40;23.90;;;20.20;40.50;;;;;;5042926;28;20466;-69
2023/04/05 12:23:29;;;;;;;24.80;22.60;;;20.10;40.80;;;;;;5045118;28;20939;-66
2023/04/05 12:25:57;;;;;;;24.07;22.20;;;20.40;40.30;;;;;;5039118;28;20467;-67
2023/04/05 12:28:25;;;;;;;26.17;23.00;;;19.90;39.20;;;;;;5045763;28;20471;-67
2023/04/05 12:30:52;;;;;;;25.97;23.23;;;20.10;38.90;;;;;;5045573;28;20459;-66
2023/04/05 12:33:29;;;;;;;24.20;22.10;;;19.80;39.70;;;;;;5042681;28;20472;-67
2023/04/05 12:35:56;;;;;;;24.80;22.03;;;20.00;38.80;;;;;;5035235;28;20994;-68
2023/04/05 12:38:27;;;;;;;24.77;22.43;;;20.50;38.20;;;;;;5039315;28;20459;-68
2023/04/05 12:40:55;;;;;;;25.67;23.13;;;20.90;40.30;;;;;;5042194;28;20499;-67
2023/04/05 12:43:22;;;;;;;24.57;22.57;;;21.60;37.40;;;;;;5042156;28;21056;-68